CCT5 weather

South Brook Seaplane Base
Newfoundland and Labrador, Canada

Public forecast

Using degrees Celsius for public forecast. Weather courtesy of forecast.io.

METAR (pilot weather report)

Closest report is Deer Lake Airport, 15.0 nm (27.9 km) NE. Retrieved 2019/07/21 06:00 UTC (4 minutes ago):

CYDF 210600Z 03004KT 15SM BKN050 11/09 A2965 RMK SC5 SLP043

TAF (pilot weather forecast)

Closest forecast is Deer Lake Airport, 15.0 nm (27.9 km) NE. Retrieved 2019/07/21 02:42 UTC (3 hours ago):

TAF CYDF 210138Z 2102/2114 03008KT P6SM BKN070 FM210400 04005KT P6SM FEW020 BKN040 TEMPO 2104/2109 BKN020 FM210900 05005KT 6SM -RA BR SCT008 OVC012 FM211300 06008KT 5SM -RA BR OVC008 RMK NXT FCST BY 210800Z